createdAt,value
2022-10-17T00:04:50.404Z,100422.00
2022-10-17T00:09:52.573Z,100300.16
2022-10-17T00:14:54.884Z,100379.00
2022-10-17T00:20:15.693Z,100424.13
2022-10-17T00:25:18.186Z,100396.78
2022-10-17T00:30:20.379Z,100397.91
2022-10-17T00:35:22.497Z,100361.06
2022-10-17T00:40:24.700Z,100333.75
2022-10-17T00:45:32.076Z,100406.28
2022-10-17T00:50:35.674Z,100382.50
2022-10-17T00:55:47.995Z,100343.63
2022-10-17T01:00:57.946Z,100318.19
2022-10-17T01:06:02.415Z,100342.97
2022-10-17T01:11:23.478Z,100348.50
2022-10-17T01:16:29.722Z,100363.53
2022-10-17T01:22:00.875Z,100346.00
2022-10-17T01:27:11.128Z,100348.75
2022-10-17T01:32:39.419Z,100340.19
2022-10-17T01:38:11.200Z,100308.72
2022-10-17T01:43:39.598Z,100324.56
2022-10-17T01:48:43.625Z,100275.91
2022-10-17T01:54:00.771Z,100280.72
2022-10-17T01:59:12.530Z,100279.59
2022-10-17T02:04:33.373Z,100279.72
2022-10-17T02:09:54.149Z,100264.53
2022-10-17T02:15:11.273Z,100309.75
2022-10-17T02:20:16.592Z,100317.34
2022-10-17T02:25:22.669Z,100308.56
2022-10-17T02:30:41.926Z,100233.84
2022-10-17T02:35:48.084Z,100167.53
2022-10-17T02:40:52.036Z,100231.81
2022-10-17T02:45:54.962Z,100287.56
2022-10-17T02:51:15.756Z,100280.88
2022-10-17T02:56:19.945Z,100252.69
2022-10-17T03:01:22.334Z,100187.50
2022-10-17T03:06:24.724Z,100253.84
2022-10-17T03:11:27.243Z,100213.34
2022-10-17T03:16:29.675Z,100242.59
2022-10-17T03:21:50.496Z,100192.31
2022-10-17T03:27:11.411Z,100239.16
2022-10-17T03:32:15.385Z,100213.72
2022-10-17T03:37:17.783Z,100205.75
2022-10-17T03:42:20.409Z,100178.69
2022-10-17T03:47:22.891Z,100148.00
2022-10-17T03:52:26.211Z,100168.59
2022-10-17T03:57:29.201Z,100173.69
2022-10-17T04:02:49.972Z,100144.00
2022-10-17T04:08:13.027Z,100165.31
2022-10-17T04:13:35.555Z,100183.91
2022-10-17T04:18:37.846Z,100134.88
2022-10-17T04:23:40.285Z,100148.09
2022-10-17T04:28:53.384Z,100112.00
2022-10-17T04:33:56.179Z,100134.09
2022-10-17T04:38:58.474Z,100153.47
2022-10-17T04:44:01.141Z,100070.91
2022-10-17T04:49:05.827Z,100101.91
2022-10-17T04:54:08.641Z,100078.97
2022-10-17T04:59:16.711Z,100125.69
2022-10-17T05:04:23.930Z,100089.03
2022-10-17T05:09:33.638Z,100056.53
2022-10-17T05:14:35.993Z,100083.81
2022-10-17T05:19:38.253Z,100088.38
2022-10-17T05:24:41.926Z,100061.41
2022-10-17T05:30:04.004Z,100089.03
2022-10-17T05:35:09.267Z,100101.38
2022-10-17T05:40:12.953Z,100085.88
2022-10-17T05:45:16.713Z,100112.16
2022-10-17T05:50:21.824Z,100062.13
2022-10-17T05:55:42.450Z,100095.50
2022-10-17T06:06:12.085Z,100087.97
2022-10-17T06:11:37.025Z,100054.47
2022-10-17T06:16:40.742Z,100060.00
2022-10-17T06:21:43.092Z,100046.00
2022-10-17T06:27:11.004Z,100065.56
2022-10-17T06:32:16.171Z,100072.28
2022-10-17T06:37:22.356Z,100033.69
2022-10-17T06:42:24.796Z,100030.50
2022-10-17T06:48:09.057Z,100026.38
2022-10-17T06:53:34.338Z,100055.31
2022-10-17T06:59:00.784Z,100005.50
2022-10-17T07:04:28.585Z,100043.47
2022-10-17T07:09:31.867Z,99992.72
2022-10-17T07:14:35.647Z,100020.84
2022-10-17T07:19:37.875Z,100042.97
2022-10-17T07:24:40.210Z,99983.59
2022-10-17T07:29:50.452Z,99974.97
2022-10-17T07:35:10.862Z,100031.28
2022-10-17T07:40:14.007Z,100038.25
2022-10-17T07:45:18.598Z,99986.19
2022-10-17T07:50:21.788Z,100028.47
2022-10-17T07:55:24.098Z,100025.94
2022-10-17T08:00:27.321Z,100017.25
2022-10-17T08:05:30.291Z,100019.94
2022-10-17T08:10:32.641Z,99995.50
2022-10-17T08:15:34.890Z,100002.66
2022-10-17T08:20:37.403Z,99994.69
2022-10-17T08:25:40.201Z,99965.25
2022-10-17T08:30:42.398Z,99971.72
2022-10-17T08:35:44.566Z,99964.00
2022-10-17T08:40:49.781Z,100007.78
2022-10-17T08:45:55.538Z,100029.84
2022-10-17T08:51:11.336Z,99884.31
2022-10-17T08:56:44.470Z,99985.16
2022-10-17T09:02:10.986Z,99974.59
2022-10-17T09:07:13.091Z,100051.13
2022-10-17T09:12:23.031Z,100039.78
2022-10-17T09:17:52.885Z,99996.13
2022-10-17T09:23:16.786Z,100019.06
2022-10-17T09:28:35.403Z,100021.63
2022-10-17T09:33:53.751Z,100002.38
2022-10-17T09:39:01.724Z,99974.22
2022-10-17T09:44:25.010Z,99974.31
2022-10-17T09:49:34.124Z,99962.06
2022-10-17T09:54:48.323Z,99983.22
2022-10-17T10:00:02.538Z,99969.31
2022-10-17T10:05:19.329Z,99908.94
2022-10-17T10:10:27.854Z,99887.63
2022-10-17T10:15:41.327Z,99915.84
2022-10-17T10:20:47.017Z,99909.75
2022-10-17T10:25:53.052Z,99911.75
2022-10-17T10:30:56.362Z,99930.22
2022-10-17T10:36:03.846Z,99905.88
2022-10-17T10:41:08.516Z,99892.91
2022-10-17T10:46:26.902Z,99907.91
2022-10-17T10:51:49.414Z,99874.69
2022-10-17T10:56:54.729Z,99920.28
2022-10-17T11:02:00.456Z,99931.63
2022-10-17T11:07:06.870Z,99925.59
2022-10-17T11:12:14.037Z,99933.41
2022-10-17T11:17:26.089Z,99900.91
2022-10-17T11:22:32.413Z,99906.56
2022-10-17T11:27:35.431Z,99832.03
2022-10-17T11:32:45.536Z,99847.94
2022-10-17T11:38:11.406Z,99788.59
2022-10-17T11:43:20.408Z,99843.00
2022-10-17T11:48:30.838Z,99817.63
2022-10-17T11:54:04.984Z,99840.63
2022-10-17T11:59:25.135Z,99836.50
2022-10-17T12:05:10.688Z,99786.66
2022-10-17T12:10:39.766Z,99814.50
2022-10-17T12:16:19.116Z,99876.63
2022-10-17T12:21:22.733Z,99721.28
2022-10-17T12:26:29.694Z,99854.69
2022-10-17T12:31:34.096Z,99842.38
2022-10-17T12:36:38.178Z,99887.03
2022-10-17T12:41:43.237Z,99893.13
2022-10-17T12:47:08.198Z,99913.06
2022-10-17T12:52:16.497Z,99919.16
2022-10-17T12:57:30.302Z,99888.44
2022-10-17T13:02:33.449Z,99929.41
2022-10-17T13:07:36.500Z,99934.59
2022-10-17T13:12:41.362Z,99920.56
2022-10-17T13:18:02.238Z,99881.91
2022-10-17T13:23:04.466Z,99923.44
2022-10-17T13:28:12.964Z,99851.03
2022-10-17T13:33:47.619Z,99874.19
2022-10-17T13:39:15.072Z,99804.09
2022-10-17T13:44:20.271Z,99870.31
2022-10-17T13:49:35.578Z,99876.19
2022-10-17T13:54:43.049Z,99804.47
2022-10-17T13:59:47.958Z,99851.78
2022-10-17T14:05:18.132Z,99854.50
2022-10-17T14:10:26.434Z,99827.94
2022-10-17T14:15:30.315Z,99769.31
2022-10-17T14:26:22.693Z,99822.59
2022-10-17T14:31:33.622Z,99843.47
2022-10-17T14:36:42.847Z,99855.81
2022-10-17T14:41:46.492Z,99848.75
2022-10-17T14:46:52.921Z,99816.44
2022-10-17T14:52:14.885Z,99876.88
2022-10-17T14:57:34.639Z,99886.38
2022-10-17T15:02:36.798Z,99835.25
2022-10-17T15:07:57.273Z,99877.28
2022-10-17T15:13:26.165Z,99882.28
2022-10-17T15:18:41.454Z,99864.94
2022-10-17T15:23:43.758Z,99853.63
2022-10-17T15:28:47.650Z,99875.50
2022-10-17T15:33:50.527Z,99858.03
2022-10-17T15:38:55.765Z,99910.00
2022-10-17T15:43:58.442Z,99834.56
2022-10-17T15:49:11.908Z,99881.28
2022-10-17T15:54:14.245Z,99855.41
2022-10-17T15:59:19.069Z,99865.38
2022-10-17T16:04:40.186Z,99883.75
2022-10-17T16:09:42.333Z,99832.13
2022-10-17T16:14:44.692Z,99839.13
2022-10-17T16:20:09.002Z,99875.13
2022-10-17T16:25:31.288Z,99872.56
2022-10-17T16:30:51.776Z,99891.94
2022-10-17T16:35:54.004Z,99842.09
2022-10-17T16:40:56.616Z,99827.94
2022-10-17T16:46:04.417Z,99817.56
2022-10-17T16:51:25.660Z,99913.25
2022-10-17T16:56:33.235Z,99904.44
2022-10-17T17:01:37.061Z,99851.91
2022-10-17T17:06:39.379Z,99893.03
2022-10-17T17:11:41.673Z,99859.72
2022-10-17T17:16:44.023Z,99931.78
2022-10-17T17:21:51.113Z,99816.94
2022-10-17T17:26:55.159Z,99922.19
2022-10-17T17:31:57.356Z,99870.38
2022-10-17T17:36:59.591Z,99949.38
2022-10-17T17:42:01.930Z,99865.88
2022-10-17T17:47:11.287Z,99882.69
2022-10-17T17:52:13.688Z,99901.16
2022-10-17T17:57:15.956Z,99936.28
2022-10-17T18:02:18.228Z,99909.03
2022-10-17T18:07:20.461Z,99835.41
2022-10-17T18:12:47.010Z,99874.97
2022-10-17T18:18:07.806Z,99963.28
2022-10-17T18:23:10.902Z,99960.72
2022-10-17T18:28:15.619Z,99908.13
2022-10-17T18:33:17.912Z,99961.56
2022-10-17T18:38:20.226Z,99920.34
2022-10-17T18:43:22.455Z,99910.63
2022-10-17T18:48:24.708Z,99888.59
2022-10-17T18:53:27.086Z,99891.34
2022-10-17T18:58:47.857Z,99949.84
2022-10-17T19:04:08.571Z,99938.34
2022-10-17T19:09:14.497Z,99926.13
2022-10-17T19:14:17.091Z,99978.59
2022-10-17T19:19:38.655Z,99944.41
2022-10-17T19:24:40.842Z,99964.34
2022-10-17T19:30:02.172Z,99937.94
2022-10-17T19:35:06.162Z,99895.81
2022-10-17T19:40:28.772Z,99935.16
2022-10-17T19:45:31.218Z,99945.78
2022-10-17T19:50:34.916Z,99919.41
2022-10-17T19:55:38.895Z,99908.66
2022-10-17T20:01:03.461Z,99985.91
2022-10-17T20:06:06.029Z,99937.56
2022-10-17T20:11:11.597Z,99894.53
2022-10-17T20:16:20.675Z,99963.78
2022-10-17T20:21:35.551Z,99978.50
2022-10-17T20:26:39.464Z,99843.34
2022-10-17T20:31:43.626Z,99972.19
2022-10-17T20:36:46.348Z,99980.94
2022-10-17T20:41:48.722Z,99955.22
2022-10-17T20:47:01.884Z,99986.03
2022-10-17T20:52:04.772Z,100019.97
2022-10-17T20:57:07.002Z,99941.19
2022-10-17T21:02:11.729Z,99949.97
2022-10-17T21:07:14.057Z,99988.38
2022-10-17T21:12:25.894Z,99933.16
2022-10-17T21:17:33.764Z,99987.59
2022-10-17T21:22:36.139Z,99897.97
2022-10-17T21:27:38.428Z,99956.81
2022-10-17T21:32:51.651Z,99845.47
2022-10-17T21:37:54.032Z,99891.03
2022-10-17T21:42:56.149Z,99929.56
2022-10-17T21:48:18.590Z,99964.56
2022-10-17T21:53:21.279Z,99959.41
2022-10-17T21:58:42.148Z,99954.94
2022-10-17T22:04:05.264Z,99947.25
2022-10-17T22:09:27.106Z,99918.22
2022-10-17T22:14:29.348Z,99923.56
2022-10-17T22:19:31.615Z,99970.94
2022-10-17T22:24:34.238Z,99958.53
2022-10-17T22:29:36.679Z,99814.69
2022-10-17T22:34:38.778Z,99922.53
2022-10-17T22:39:40.844Z,99929.66
2022-10-17T22:45:04.959Z,99898.88
2022-10-17T22:50:07.267Z,99885.78
2022-10-17T22:55:10.111Z,99863.81
2022-10-17T23:00:12.497Z,99954.19
2022-10-17T23:05:14.625Z,99881.50
2022-10-17T23:10:16.772Z,99912.25
2022-10-17T23:15:18.956Z,99864.94
2022-10-17T23:20:21.176Z,99897.28
2022-10-17T23:25:23.828Z,99860.59
2022-10-17T23:30:26.189Z,99921.13
2022-10-17T23:35:46.863Z,99929.66
2022-10-17T23:41:07.951Z,99953.41
2022-10-17T23:46:11.438Z,99888.47
2022-10-17T23:51:32.368Z,99920.28
2022-10-17T23:56:34.440Z,99884.38
